createdAt,value
2023-02-11T00:00:42.092Z,52.67
2023-02-11T00:03:09.652Z,48.13
2023-02-11T00:05:36.413Z,53.00
2023-02-11T00:08:02.849Z,48.63
2023-02-11T00:10:29.244Z,46.17
2023-02-11T00:12:56.159Z,51.97
2023-02-11T00:15:23.146Z,58.42
2023-02-11T00:17:49.649Z,56.88
2023-02-11T00:20:16.140Z,48.60
2023-02-11T00:22:43.040Z,51.97
2023-02-11T00:25:09.454Z,44.95
2023-02-11T00:27:37.368Z,55.63
2023-02-11T00:30:05.641Z,50.78
2023-02-11T00:32:32.173Z,52.20
2023-02-11T00:34:59.024Z,53.42
2023-02-11T00:37:25.730Z,56.40
2023-02-11T00:39:52.519Z,49.53
2023-02-11T00:42:19.274Z,54.28
2023-02-11T00:44:46.834Z,54.63
2023-02-11T00:47:13.205Z,46.97
2023-02-11T00:49:40.492Z,50.13
2023-02-11T00:52:07.012Z,47.08
2023-02-11T00:54:33.480Z,53.25
2023-02-11T00:56:59.834Z,51.13
2023-02-11T00:59:26.838Z,50.78
2023-02-11T01:01:53.500Z,46.63
2023-02-11T01:04:19.912Z,54.90
2023-02-11T01:06:46.442Z,46.67
2023-02-11T01:09:13.259Z,48.63
2023-02-11T01:11:39.708Z,50.10
2023-02-11T01:14:06.201Z,46.75
2023-02-11T01:16:32.626Z,49.33
2023-02-11T01:18:59.511Z,58.83
2023-02-11T01:21:26.051Z,53.75
2023-02-11T01:23:53.312Z,52.83
2023-02-11T01:26:19.805Z,55.67
2023-02-11T01:28:46.418Z,57.03
2023-02-11T01:31:13.316Z,49.78
2023-02-11T01:33:40.457Z,46.50
2023-02-11T01:36:07.560Z,42.88
2023-02-11T01:38:34.853Z,56.95
2023-02-11T01:41:12.771Z,51.25
2023-02-11T01:43:42.543Z,50.83
2023-02-11T01:46:27.584Z,52.80
2023-02-11T01:49:06.669Z,51.08
2023-02-11T01:51:39.246Z,51.95
2023-02-11T01:54:28.079Z,52.08
2023-02-11T01:57:17.517Z,48.92
2023-02-11T01:59:52.621Z,52.65
2023-02-11T02:04:57.894Z,54.25
2023-02-11T02:07:52.645Z,48.05
2023-02-11T02:10:22.818Z,52.47
2023-02-11T02:12:49.617Z,49.25
2023-02-11T02:15:21.418Z,49.90
2023-02-11T02:18:28.909Z,57.95
2023-02-11T02:21:10.982Z,46.28
2023-02-11T02:23:58.990Z,50.53
2023-02-11T02:26:44.282Z,50.47
2023-02-11T02:29:48.391Z,49.50
2023-02-11T02:32:53.516Z,47.47
2023-02-11T02:35:19.925Z,49.28
2023-02-11T02:38:09.874Z,45.05
2023-02-11T02:41:02.085Z,52.13
2023-02-11T02:43:30.376Z,48.17
2023-02-11T02:46:10.728Z,47.22
2023-02-11T02:48:37.282Z,47.90
2023-02-11T02:51:25.758Z,46.67
2023-02-11T02:53:55.472Z,42.80
2023-02-11T02:56:46.223Z,44.60
2023-02-11T02:59:49.638Z,44.50
2023-02-11T03:02:33.571Z,41.63
2023-02-11T03:05:12.050Z,45.80
2023-02-11T03:07:48.564Z,42.88
2023-02-11T03:10:32.809Z,43.03
2023-02-11T03:13:01.258Z,43.50
2023-02-11T03:15:32.428Z,48.63
2023-02-11T03:18:02.436Z,46.53
2023-02-11T03:20:32.953Z,52.53
2023-02-11T03:23:08.554Z,52.50
2023-02-11T03:25:41.126Z,43.65
2023-02-11T03:28:24.034Z,49.92
2023-02-11T03:31:03.020Z,40.67
2023-02-11T03:33:39.518Z,49.35
2023-02-11T03:36:16.149Z,47.72
2023-02-11T03:38:51.266Z,50.25
2023-02-11T03:43:54.720Z,44.83
2023-02-11T03:46:27.935Z,46.95
2023-02-11T03:48:59.225Z,48.72
2023-02-11T03:51:29.404Z,54.10
2023-02-11T03:53:59.847Z,44.88
2023-02-11T03:56:32.135Z,46.25
2023-02-11T03:58:58.755Z,56.10
2023-02-11T04:01:25.697Z,51.83
2023-02-11T04:03:52.134Z,52.88
2023-02-11T04:06:18.989Z,52.25
2023-02-11T04:08:45.412Z,50.25
2023-02-11T04:11:11.937Z,49.10
2023-02-11T04:13:38.404Z,47.50
2023-02-11T04:16:05.037Z,49.97
2023-02-11T04:18:32.179Z,48.55
2023-02-11T04:20:58.569Z,49.92
2023-02-11T04:23:25.436Z,55.55
2023-02-11T04:25:52.142Z,52.47
2023-02-11T04:28:18.936Z,53.53
2023-02-11T04:30:45.380Z,47.83
2023-02-11T04:33:11.974Z,43.35
2023-02-11T04:35:38.415Z,53.65
2023-02-11T04:38:04.819Z,43.33
2023-02-11T04:40:31.587Z,49.47
2023-02-11T04:42:58.271Z,39.78
2023-02-11T04:45:24.758Z,47.13
2023-02-11T04:47:51.396Z,48.00
2023-02-11T04:50:17.986Z,42.70
2023-02-11T04:52:44.976Z,41.47
2023-02-11T04:55:11.722Z,49.42
2023-02-11T04:57:38.728Z,41.47
2023-02-11T05:00:06.504Z,41.55
2023-02-11T05:02:32.928Z,44.97
2023-02-11T05:05:00.489Z,44.20
2023-02-11T05:07:27.058Z,41.30
2023-02-11T05:09:53.986Z,38.75
2023-02-11T05:12:20.355Z,43.15
2023-02-11T05:14:47.261Z,40.72
2023-02-11T05:17:13.646Z,40.97
2023-02-11T05:19:41.827Z,39.97
2023-02-11T05:22:08.456Z,40.40
2023-02-11T05:24:35.673Z,37.53
2023-02-11T05:27:02.334Z,35.63
2023-02-11T05:29:28.884Z,44.67
2023-02-11T05:31:55.292Z,39.92
2023-02-11T05:34:22.990Z,44.90
2023-02-11T05:36:49.392Z,37.97
2023-02-11T05:39:16.972Z,37.90
2023-02-11T05:41:43.603Z,41.28
2023-02-11T05:44:10.147Z,45.10
2023-02-11T05:46:36.692Z,38.78
2023-02-11T05:49:03.574Z,43.30
2023-02-11T05:51:30.018Z,49.65
2023-02-11T05:53:56.566Z,45.65
2023-02-11T05:56:24.071Z,41.20
2023-02-11T05:58:50.634Z,42.85
2023-02-11T06:01:17.220Z,47.78
2023-02-11T06:03:43.642Z,45.05
2023-02-11T06:06:12.163Z,50.15
2023-02-11T06:08:39.649Z,43.05
2023-02-11T06:11:07.402Z,47.72
2023-02-11T06:13:34.120Z,56.42
2023-02-11T06:16:01.986Z,51.08
2023-02-11T06:18:29.801Z,43.17
2023-02-11T06:20:57.091Z,42.20
2023-02-11T06:23:23.683Z,46.15
2023-02-11T06:25:51.055Z,45.28
2023-02-11T06:28:17.684Z,44.17
2023-02-11T06:30:44.711Z,53.88
2023-02-11T06:33:11.508Z,50.08
2023-02-11T06:35:40.739Z,49.10
2023-02-11T06:38:07.603Z,52.42
2023-02-11T06:40:34.415Z,51.40
2023-02-11T06:43:00.855Z,52.42
2023-02-11T06:45:27.578Z,49.50
2023-02-11T06:47:53.943Z,46.95
2023-02-11T06:50:20.943Z,46.17
2023-02-11T06:52:47.341Z,47.35
2023-02-11T06:55:14.557Z,46.08
2023-02-11T06:57:41.179Z,46.20
2023-02-11T07:00:08.588Z,46.63
2023-02-11T07:02:35.962Z,43.42
2023-02-11T07:05:03.001Z,36.22
2023-02-11T07:07:30.822Z,37.35
2023-02-11T07:09:58.866Z,44.47
2023-02-11T07:12:25.302Z,45.50
2023-02-11T07:14:52.862Z,42.53
2023-02-11T07:17:19.380Z,43.17
2023-02-11T07:19:45.753Z,51.08
2023-02-11T07:22:12.260Z,45.85
2023-02-11T07:24:38.717Z,71.20
2023-02-11T07:27:05.439Z,59.00
2023-02-11T07:29:32.084Z,60.10
2023-02-11T07:31:59.184Z,60.85
2023-02-11T07:34:25.693Z,53.60
2023-02-11T07:36:52.405Z,47.00
2023-02-11T07:39:20.204Z,45.63
2023-02-11T07:41:48.897Z,46.55
2023-02-11T07:44:15.696Z,46.25
2023-02-11T07:46:45.606Z,46.30
2023-02-11T07:49:12.987Z,44.95
2023-02-11T07:51:39.970Z,45.28
2023-02-11T07:54:06.617Z,43.35
2023-02-11T07:56:34.153Z,44.65
2023-02-11T07:59:03.523Z,45.97
2023-02-11T08:01:46.413Z,46.83
2023-02-11T08:04:12.910Z,48.80
2023-02-11T08:06:43.334Z,45.63
2023-02-11T08:09:14.209Z,43.92
2023-02-11T08:11:42.119Z,43.03
2023-02-11T08:14:11.139Z,44.92
2023-02-11T08:16:41.841Z,48.35
2023-02-11T08:19:12.776Z,48.50
2023-02-11T08:21:40.563Z,50.03
2023-02-11T08:24:07.313Z,48.17
2023-02-11T08:26:34.877Z,48.05
2023-02-11T08:29:03.648Z,43.30
2023-02-11T08:31:34.938Z,50.58
2023-02-11T08:34:02.622Z,44.58
2023-02-11T08:36:31.772Z,46.13
2023-02-11T08:39:17.459Z,54.28
2023-02-11T08:41:46.082Z,41.67
2023-02-11T08:44:13.195Z,42.42
2023-02-11T08:46:39.895Z,45.90
2023-02-11T08:49:06.775Z,44.80
2023-02-11T08:51:33.372Z,49.58
2023-02-11T08:54:01.072Z,47.00
2023-02-11T08:56:28.404Z,56.95
2023-02-11T08:58:55.576Z,45.30
2023-02-11T09:01:25.302Z,48.50
2023-02-11T09:03:53.298Z,48.92
2023-02-11T09:06:20.836Z,44.05
2023-02-11T09:08:49.982Z,41.50
2023-02-11T09:11:18.777Z,47.42
2023-02-11T09:13:46.022Z,42.00
2023-02-11T09:16:21.821Z,41.53
2023-02-11T09:18:49.188Z,50.35
2023-02-11T09:21:17.529Z,51.10
2023-02-11T09:23:44.724Z,44.78
2023-02-11T09:26:15.135Z,47.50
2023-02-11T09:28:42.077Z,46.20
2023-02-11T09:31:11.272Z,46.28
2023-02-11T09:33:40.366Z,42.13
2023-02-11T09:36:07.479Z,44.22
2023-02-11T09:38:34.462Z,50.75
2023-02-11T09:41:04.695Z,48.95
2023-02-11T09:43:44.482Z,40.83
2023-02-11T09:46:16.365Z,48.88
2023-02-11T09:48:45.464Z,44.80
2023-02-11T09:51:34.325Z,40.97
2023-02-11T09:54:07.907Z,44.95
2023-02-11T09:56:34.643Z,46.88
2023-02-11T09:59:01.118Z,48.65
2023-02-11T10:01:44.478Z,47.28
2023-02-11T10:04:30.519Z,45.80
2023-02-11T10:07:08.342Z,51.08
2023-02-11T10:09:57.086Z,67.68
2023-02-11T10:12:40.648Z,60.67
2023-02-11T10:15:06.988Z,48.60
2023-02-11T10:17:33.759Z,46.80
2023-02-11T10:20:16.956Z,55.28
2023-02-11T10:22:49.700Z,50.40
2023-02-11T10:25:26.617Z,44.60
2023-02-11T10:27:57.205Z,49.47
2023-02-11T10:30:35.844Z,55.85
2023-02-11T10:33:28.339Z,38.42
2023-02-11T10:35:55.026Z,47.47
2023-02-11T10:38:21.629Z,55.85
2023-02-11T10:40:48.294Z,51.85
2023-02-11T10:43:17.251Z,55.10
2023-02-11T10:45:46.804Z,48.05
2023-02-11T10:48:44.389Z,52.95
2023-02-11T10:51:13.379Z,49.03
2023-02-11T10:53:40.745Z,59.63
2023-02-11T10:56:12.876Z,49.72
2023-02-11T10:58:46.908Z,53.67
2023-02-11T11:01:24.403Z,57.45
2023-02-11T11:03:52.979Z,51.65
2023-02-11T11:06:31.527Z,54.88
2023-02-11T11:08:58.486Z,59.00
2023-02-11T11:11:26.510Z,55.20
2023-02-11T11:13:53.244Z,51.85
2023-02-11T11:16:19.667Z,52.60
2023-02-11T11:18:49.181Z,57.65
2023-02-11T11:21:18.649Z,63.67
2023-02-11T11:23:56.080Z,49.67
2023-02-11T11:26:23.622Z,59.42
2023-02-11T11:29:00.244Z,50.97
2023-02-11T11:31:34.337Z,49.55
2023-02-11T11:34:17.510Z,55.20
2023-02-11T11:36:44.519Z,44.05
2023-02-11T11:39:24.122Z,46.13
2023-02-11T11:41:56.546Z,48.13
2023-02-11T11:44:28.104Z,43.42
2023-02-11T11:47:13.523Z,50.80
2023-02-11T11:50:01.109Z,47.33
2023-02-11T11:52:49.391Z,43.03
2023-02-11T11:55:28.593Z,44.13
2023-02-11T11:57:55.255Z,45.80
2023-02-11T12:00:29.763Z,44.95
2023-02-11T12:03:18.748Z,39.00
2023-02-11T12:06:03.759Z,43.28
2023-02-11T12:09:01.105Z,43.92
2023-02-11T12:11:59.032Z,40.30
2023-02-11T12:14:57.281Z,44.25
2023-02-11T12:17:33.429Z,41.13
2023-02-11T12:20:18.091Z,40.08
2023-02-11T12:22:52.107Z,43.22
2023-02-11T12:25:29.711Z,43.60
2023-02-11T12:28:15.157Z,44.95
2023-02-11T12:33:26.499Z,52.90
2023-02-11T12:36:15.026Z,52.80
2023-02-11T12:38:58.103Z,55.45
2023-02-11T12:41:51.769Z,49.38
2023-02-11T12:44:42.871Z,49.45
2023-02-11T12:47:21.809Z,45.75
2023-02-11T12:49:48.123Z,49.50
2023-02-11T12:52:39.837Z,41.17
2023-02-11T12:55:37.052Z,42.03
2023-02-11T12:58:05.060Z,44.70
2023-02-11T13:00:42.567Z,45.85
2023-02-11T13:03:32.663Z,47.42
2023-02-11T13:06:05.332Z,42.10
2023-02-11T13:08:44.152Z,42.88
2023-02-11T13:11:19.035Z,44.47
2023-02-11T13:13:45.425Z,47.17
2023-02-11T13:16:35.453Z,40.92
2023-02-11T13:19:21.294Z,39.40
2023-02-11T13:22:15.758Z,41.72
2023-02-11T13:24:59.416Z,36.80
2023-02-11T13:27:31.892Z,42.33
2023-02-11T13:30:21.338Z,35.85
2023-02-11T13:32:53.674Z,32.05
2023-02-11T13:35:40.051Z,33.17
2023-02-11T13:38:18.748Z,35.10
2023-02-11T13:40:46.228Z,34.28
2023-02-11T13:43:30.453Z,33.65
2023-02-11T13:46:03.998Z,36.70
2023-02-11T13:48:45.271Z,37.03
2023-02-11T13:51:15.311Z,34.15
2023-02-11T13:53:54.067Z,36.80
2023-02-11T13:56:30.795Z,42.10
2023-02-11T13:59:01.885Z,46.90
2023-02-11T14:02:40.773Z,41.13
2023-02-11T14:05:26.047Z,36.70
2023-02-11T14:08:31.776Z,34.00
2023-02-11T14:11:02.756Z,44.78
2023-02-11T14:13:34.507Z,41.15
2023-02-11T14:16:22.642Z,40.97
2023-02-11T14:18:54.727Z,42.35
2023-02-11T14:21:30.339Z,44.55
2023-02-11T14:24:05.221Z,42.47
2023-02-11T14:26:53.920Z,47.33
2023-02-11T14:29:46.524Z,41.72
2023-02-11T14:32:45.631Z,43.72
2023-02-11T14:35:40.992Z,39.13
2023-02-11T14:38:30.604Z,56.35
2023-02-11T14:41:20.026Z,50.53
2023-02-11T14:43:51.418Z,46.38
2023-02-11T14:46:20.463Z,43.22
2023-02-11T14:48:50.369Z,46.17
2023-02-11T14:51:31.493Z,50.25
2023-02-11T14:54:03.240Z,49.20
2023-02-11T14:56:31.409Z,48.97
2023-02-11T14:58:58.667Z,48.35
2023-02-11T15:01:35.494Z,46.25
2023-02-11T15:04:04.365Z,53.10
2023-02-11T15:06:38.165Z,49.17
2023-02-11T15:09:14.749Z,52.05
2023-02-11T15:11:43.684Z,54.13
2023-02-11T15:14:19.536Z,49.90
2023-02-11T15:16:47.053Z,53.17
2023-02-11T15:19:40.943Z,50.55
2023-02-11T15:22:22.472Z,50.30
2023-02-11T15:25:10.252Z,47.17
2023-02-11T15:27:41.833Z,41.30
2023-02-11T15:30:23.713Z,46.67
2023-02-11T15:32:53.998Z,49.95
2023-02-11T15:35:20.492Z,54.90
2023-02-11T15:37:48.956Z,47.75
2023-02-11T15:40:19.503Z,48.30
2023-02-11T15:43:08.123Z,58.05
2023-02-11T15:45:38.726Z,49.80
2023-02-11T15:48:08.122Z,50.72
2023-02-11T15:50:37.645Z,49.08
2023-02-11T15:53:25.334Z,49.35
2023-02-11T15:55:58.765Z,46.58
2023-02-11T15:58:25.359Z,50.63
2023-02-11T16:01:00.147Z,55.17
2023-02-11T16:03:32.378Z,55.75
2023-02-11T16:06:24.985Z,56.83
2023-02-11T16:09:05.853Z,59.47
2023-02-11T16:11:54.060Z,58.53
2023-02-11T16:14:33.111Z,51.63
2023-02-11T16:17:25.529Z,58.58
2023-02-11T16:19:54.660Z,51.38
2023-02-11T16:22:30.143Z,53.35
2023-02-11T16:25:00.038Z,49.38
2023-02-11T16:27:37.054Z,50.03
2023-02-11T16:30:04.556Z,54.00
2023-02-11T16:32:30.912Z,52.70
2023-02-11T16:35:01.039Z,56.33
2023-02-11T16:37:27.680Z,54.53
2023-02-11T16:39:54.911Z,53.55
2023-02-11T16:42:21.752Z,57.08
2023-02-11T16:44:48.148Z,59.72
2023-02-11T16:47:26.575Z,51.88
2023-02-11T16:49:53.952Z,60.92
2023-02-11T16:52:21.933Z,57.85
2023-02-11T16:54:48.599Z,62.25
2023-02-11T16:57:17.676Z,55.28
2023-02-11T16:59:44.828Z,51.38
2023-02-11T17:02:21.729Z,49.10
2023-02-11T17:04:50.448Z,45.42
2023-02-11T17:07:16.860Z,50.83
2023-02-11T17:09:43.306Z,54.10
2023-02-11T17:12:09.716Z,73.38
2023-02-11T17:14:36.182Z,73.78
2023-02-11T17:17:03.208Z,61.15
2023-02-11T17:19:29.952Z,73.03
2023-02-11T17:21:56.309Z,61.33
2023-02-11T17:24:22.755Z,69.93
2023-02-11T17:26:49.976Z,56.85
2023-02-11T17:29:21.606Z,61.65
2023-02-11T17:31:48.205Z,57.35
2023-02-11T17:34:16.107Z,59.35
2023-02-11T17:36:42.520Z,57.95
2023-02-11T17:39:09.518Z,60.45
2023-02-11T17:41:40.234Z,56.50
2023-02-11T17:44:07.684Z,53.17
2023-02-11T17:46:34.800Z,64.18
2023-02-11T17:49:02.121Z,61.58
2023-02-11T17:51:33.559Z,58.25
2023-02-11T17:54:02.996Z,57.50
2023-02-11T17:56:31.993Z,51.63
2023-02-11T17:58:58.610Z,55.08
2023-02-11T18:01:29.198Z,61.78
2023-02-11T18:03:55.704Z,47.72
2023-02-11T18:06:22.112Z,63.85
2023-02-11T18:08:48.788Z,59.67
2023-02-11T18:11:16.891Z,58.83
2023-02-11T18:13:45.160Z,61.72
2023-02-11T18:16:15.739Z,65.63
2023-02-11T18:18:43.437Z,63.63
2023-02-11T18:21:15.849Z,57.78
2023-02-11T18:23:43.163Z,67.78
2023-02-11T18:26:11.567Z,58.03
2023-02-11T18:28:38.735Z,62.42
2023-02-11T18:31:06.648Z,66.03
2023-02-11T18:33:33.907Z,64.43
2023-02-11T18:36:00.333Z,62.00
2023-02-11T18:38:26.831Z,59.50
2023-02-11T18:40:57.660Z,62.50
2023-02-11T18:43:24.168Z,64.10
2023-02-11T18:45:51.543Z,53.75
2023-02-11T18:48:19.468Z,56.20
2023-02-11T18:50:46.895Z,53.15
2023-02-11T18:53:15.941Z,60.08
2023-02-11T18:55:45.465Z,63.03
2023-02-11T18:58:12.252Z,63.70
2023-02-11T19:00:41.340Z,54.88
2023-02-11T19:03:08.119Z,59.60
2023-02-11T19:05:43.715Z,56.72
2023-02-11T19:08:10.777Z,55.42
2023-02-11T19:10:47.818Z,63.67
2023-02-11T19:13:14.999Z,56.67
2023-02-11T19:15:43.185Z,58.08
2023-02-11T19:18:10.259Z,59.22
2023-02-11T19:20:42.879Z,60.20
2023-02-11T19:23:10.818Z,56.78
2023-02-11T19:25:38.082Z,60.83
2023-02-11T19:28:04.671Z,58.88
2023-02-11T19:30:31.555Z,50.40
2023-02-11T19:32:58.672Z,59.90
2023-02-11T19:35:25.484Z,54.33
2023-02-11T19:37:52.355Z,57.83
2023-02-11T19:40:21.071Z,55.20
2023-02-11T19:42:47.666Z,73.70
2023-02-11T19:45:14.079Z,76.40
2023-02-11T19:47:41.190Z,70.47
2023-02-11T19:50:08.690Z,72.57
2023-02-11T19:52:40.701Z,73.05
2023-02-11T19:55:08.116Z,62.22
2023-02-11T19:57:36.598Z,60.97
2023-02-11T20:00:04.302Z,59.42
2023-02-11T20:02:31.122Z,53.70
2023-02-11T20:04:57.604Z,63.42
2023-02-11T20:07:24.126Z,59.83
2023-02-11T20:09:50.741Z,69.55
2023-02-11T20:12:17.184Z,66.13
2023-02-11T20:14:43.728Z,72.80
2023-02-11T20:17:10.213Z,64.47
2023-02-11T20:19:36.618Z,57.25
2023-02-11T20:22:03.268Z,65.18
2023-02-11T20:24:30.385Z,75.53
2023-02-11T20:26:57.287Z,78.82
2023-02-11T20:29:24.503Z,71.07
2023-02-11T20:31:51.390Z,70.53
2023-02-11T20:34:18.682Z,73.78
2023-02-11T20:36:51.471Z,60.88
2023-02-11T20:39:18.628Z,66.47
2023-02-11T20:41:46.404Z,67.20
2023-02-11T20:44:13.867Z,59.80
2023-02-11T20:46:43.233Z,58.22
2023-02-11T20:49:18.901Z,48.53
2023-02-11T20:51:45.522Z,58.90
2023-02-11T20:54:18.048Z,57.10
2023-02-11T20:56:47.691Z,57.95
2023-02-11T20:59:15.221Z,66.03
2023-02-11T21:01:44.779Z,63.90
2023-02-11T21:04:16.929Z,72.57
2023-02-11T21:06:47.224Z,80.28
2023-02-11T21:09:16.299Z,70.70
2023-02-11T21:11:43.324Z,63.92
2023-02-11T21:14:10.288Z,59.53
2023-02-11T21:16:37.310Z,57.03
2023-02-11T21:19:04.527Z,62.30
2023-02-11T21:21:31.884Z,57.38
2023-02-11T21:23:58.971Z,65.95
2023-02-11T21:26:25.555Z,86.00
2023-02-11T21:28:52.459Z,74.40
2023-02-11T21:31:23.156Z,78.30
2023-02-11T21:33:50.943Z,80.32
2023-02-11T21:36:17.801Z,78.25
2023-02-11T21:38:45.342Z,74.35
2023-02-11T21:41:12.492Z,76.85
2023-02-11T21:43:39.002Z,71.53
2023-02-11T21:46:11.057Z,74.97
2023-02-11T21:48:37.788Z,67.70
2023-02-11T21:51:09.807Z,74.22
2023-02-11T21:53:37.453Z,71.10
2023-02-11T21:56:12.019Z,75.00
2023-02-11T21:58:38.910Z,65.20
2023-02-11T22:01:11.744Z,63.65
2023-02-11T22:03:39.403Z,66.30
2023-02-11T22:06:08.122Z,63.38
2023-02-11T22:08:35.257Z,69.85
2023-02-11T22:11:06.243Z,66.32
2023-02-11T22:13:33.650Z,66.78
2023-02-11T22:16:01.922Z,78.32
2023-02-11T22:18:30.709Z,72.88
2023-02-11T22:21:09.212Z,76.22
2023-02-11T22:23:36.311Z,60.25
2023-02-11T22:26:10.592Z,66.40
2023-02-11T22:28:39.137Z,60.63
2023-02-11T22:31:06.368Z,70.60
2023-02-11T22:33:34.091Z,70.50
2023-02-11T22:36:01.593Z,71.72
2023-02-11T22:38:29.523Z,69.75
2023-02-11T22:40:56.172Z,67.22
2023-02-11T22:43:22.953Z,59.33
2023-02-11T22:45:49.967Z,60.85
2023-02-11T22:48:17.073Z,53.72
2023-02-11T22:50:43.461Z,59.58
2023-02-11T22:53:10.093Z,60.25
2023-02-11T22:55:38.800Z,63.25
2023-02-11T22:58:05.641Z,62.13
2023-02-11T23:00:38.076Z,62.00
2023-02-11T23:03:05.924Z,60.47
2023-02-11T23:05:39.204Z,66.43
2023-02-11T23:08:07.729Z,62.92
2023-02-11T23:10:36.284Z,64.05
2023-02-11T23:13:04.887Z,67.32
2023-02-11T23:15:32.114Z,69.18
2023-02-11T23:17:58.964Z,72.93
2023-02-11T23:20:25.786Z,75.28
2023-02-11T23:22:52.830Z,68.40
2023-02-11T23:25:19.204Z,70.32
2023-02-11T23:27:46.202Z,74.65
2023-02-11T23:30:13.146Z,81.13
2023-02-11T23:32:39.610Z,72.13
2023-02-11T23:35:06.576Z,76.00
2023-02-11T23:37:33.055Z,70.75
2023-02-11T23:39:59.907Z,73.28
2023-02-11T23:42:26.338Z,69.93
2023-02-11T23:44:53.085Z,61.90
2023-02-11T23:47:19.649Z,63.42
2023-02-11T23:49:46.483Z,69.75
2023-02-11T23:52:12.936Z,68.50
2023-02-11T23:54:39.817Z,63.80
2023-02-11T23:57:06.205Z,63.05
2023-02-11T23:59:32.744Z,64.15
